Time;durP1;ratioP1;P1;durP2;ratioP2;P2;SDS_P1;SDS_P2;PMS_P1;PMS_P2;Temp;Humidity;BMP_temperature;BMP_pressure;BME280_temperature;BME280_humidity;BME280_pressure;Samples;Min_cycle;Max_cycle;Signal;HPM_P1;HPM_P2
2019/04/29 00:02:05;;;;;;;5.8;4.9;;;;;;;;;;;;;
2019/04/29 00:04:30;;;;;;;6.2;4.6;;;;;;;;;;;;;
2019/04/29 00:06:55;;;;;;;5.1;4.6;;;;;;;;;;;;;
2019/04/29 00:09:20;;;;;;;5.2;4.7;;;;;;;;;;;;;
2019/04/29 00:11:45;;;;;;;4.5;4.1;;;;;;;;;;;;;
2019/04/29 00:14:11;;;;;;;5.3;4.8;;;;;;;;;;;;;
2019/04/29 00:16:41;;;;;;;5.1;4.6;;;;;;;;;;;;;
2019/04/29 00:21:26;;;;;;;5.5;4.8;;;;;;;;;;;;;
2019/04/29 00:23:52;;;;;;;6.4;4.9;;;;;;;;;;;;;
2019/04/29 00:26:17;;;;;;;6.4;4.9;;;;;;;;;;;;;
2019/04/29 00:28:42;;;;;;;4.9;4.2;;;;;;;;;;;;;
2019/04/29 00:31:08;;;;;;;5.8;4.7;;;;;;;;;;;;;
2019/04/29 00:33:33;;;;;;;5.8;4.5;;;;;;;;;;;;;
2019/04/29 00:35:58;;;;;;;7.5;4.7;;;;;;;;;;;;;
2019/04/29 00:41:07;;;;;;;5;4.3;;;;;;;;;;;;;
2019/04/29 00:45:39;;;;;;;5.1;4.4;;;;;;;;;;;;;
2019/04/29 00:48:04;;;;;;;5.8;4.8;;;;;;;;;;;;;
2019/04/29 00:50:29;;;;;;;6.5;4.7;;;;;;;;;;;;;
2019/04/29 00:52:54;;;;;;;7;4.5;;;;;;;;;;;;;
2019/04/29 00:55:21;;;;;;;5.2;4.7;;;;;;;;;;;;;
2019/04/29 00:57:46;;;;;;;6.6;4.9;;;;;;;;;;;;;
2019/04/29 01:00:18;;;;;;;5.2;4.3;;;;;;;;;;;;;
2019/04/29 01:02:36;;;;;;;5.6;4.7;;;;;;;;;;;;;
2019/04/29 01:05:01;;;;;;;6.2;5;;;;;;;;;;;;;
2019/04/29 01:07:30;;;;;;;5.5;5;;;;;;;;;;;;;
2019/04/29 01:10:02;;;;;;;6.8;5.5;;;;;;;;;;;;;
2019/04/29 01:12:27;;;;;;;6;5.2;;;;;;;;;;;;;
2019/04/29 01:14:53;;;;;;;7.2;5.4;;;;;;;;;;;;;
2019/04/29 01:17:21;;;;;;;7.2;5.6;;;;;;;;;;;;;
2019/04/29 01:19:46;;;;;;;8.4;5.6;;;;;;;;;;;;;
2019/04/29 01:22:12;;;;;;;6.9;5.6;;;;;;;;;;;;;
2019/04/29 01:24:37;;;;;;;5.8;5.2;;;;;;;;;;;;;
2019/04/29 01:27:11;;;;;;;5.8;5.2;;;;;;;;;;;;;
2019/04/29 01:29:29;;;;;;;6.2;5.6;;;;;;;;;;;;;
2019/04/29 01:31:54;;;;;;;6.2;5.3;;;;;;;;;;;;;
2019/04/29 01:34:25;;;;;;;6.8;5.6;;;;;;;;;;;;;
2019/04/29 01:36:46;;;;;;;7.9;5.4;;;;;;;;;;;;;
2019/04/29 01:39:12;;;;;;;6.8;5.1;;;;;;;;;;;;;
2019/04/29 01:41:54;;;;;;;6.9;5;;;;;;;;;;;;;
2019/04/29 01:44:15;;;;;;;6.2;5.1;;;;;;;;;;;;;
2019/04/29 01:46:39;;;;;;;7.2;5.9;;;;;;;;;;;;;
2019/04/29 01:49:04;;;;;;;8.4;5.7;;;;;;;;;;;;;
2019/04/29 01:51:30;;;;;;;6.9;5.4;;;;;;;;;;;;;
2019/04/29 01:53:55;;;;;;;8;5.4;;;;;;;;;;;;;
2019/04/29 01:56:21;;;;;;;5.7;5.1;;;;;;;;;;;;;
2019/04/29 01:58:46;;;;;;;7.3;6.2;;;;;;;;;;;;;
2019/04/29 02:01:11;;;;;;;7.2;6;;;;;;;;;;;;;
2019/04/29 02:03:36;;;;;;;6;5.3;;;;;;;;;;;;;
2019/04/29 02:06:01;;;;;;;6.8;5.3;;;;;;;;;;;;;
2019/04/29 02:08:26;;;;;;;8.4;5.7;;;;;;;;;;;;;
2019/04/29 02:10:54;;;;;;;6.4;5.8;;;;;;;;;;;;;
2019/04/29 02:13:19;;;;;;;8.4;6.2;;;;;;;;;;;;;
2019/04/29 02:15:44;;;;;;;7.3;5.1;;;;;;;;;;;;;
2019/04/29 02:18:09;;;;;;;6.7;6;;;;;;;;;;;;;
2019/04/29 02:20:35;;;;;;;6.7;5.5;;;;;;;;;;;;;
2019/04/29 02:25:30;;;;;;;8.5;5.6;;;;;;;;;;;;;
2019/04/29 02:27:50;;;;;;;7.9;5.9;;;;;;;;;;;;;
2019/04/29 02:30:16;;;;;;;7.8;5.5;;;;;;;;;;;;;
2019/04/29 02:32:41;;;;;;;7.9;5.8;;;;;;;;;;;;;
2019/04/29 02:35:06;;;;;;;7.8;5.3;;;;;;;;;;;;;
2019/04/29 02:37:35;;;;;;;7.9;5.9;;;;;;;;;;;;;
2019/04/29 02:40:02;;;;;;;7.5;5.6;;;;;;;;;;;;;
2019/04/29 02:44:47;;;;;;;8.8;6.3;;;;;;;;;;;;;
2019/04/29 02:47:12;;;;;;;8.3;5.7;;;;;;;;;;;;;
2019/04/29 02:49:40;;;;;;;7.6;5.8;;;;;;;;;;;;;
2019/04/29 02:52:06;;;;;;;8.6;5.6;;;;;;;;;;;;;
2019/04/29 02:54:31;;;;;;;7.8;5.8;;;;;;;;;;;;;
2019/04/29 02:57:02;;;;;;;6.2;5;;;;;;;;;;;;;
2019/04/29 02:59:25;;;;;;;6.1;5.5;;;;;;;;;;;;;
2019/04/29 03:04:21;;;;;;;7.8;5.3;;;;;;;;;;;;;
2019/04/29 03:06:36;;;;;;;8.7;5.9;;;;;;;;;;;;;
2019/04/29 03:09:02;;;;;;;8.2;6;;;;;;;;;;;;;
2019/04/29 03:11:27;;;;;;;7.1;5.4;;;;;;;;;;;;;
2019/04/29 03:13:52;;;;;;;7.1;5.3;;;;;;;;;;;;;
2019/04/29 03:16:18;;;;;;;7.5;5.4;;;;;;;;;;;;;
2019/04/29 03:18:47;;;;;;;8.9;5.6;;;;;;;;;;;;;
2019/04/29 03:21:13;;;;;;;7.8;5.9;;;;;;;;;;;;;
2019/04/29 03:23:33;;;;;;;7.4;6.5;;;;;;;;;;;;;
2019/04/29 03:25:58;;;;;;;10.1;6.4;;;;;;;;;;;;;
2019/04/29 03:28:23;;;;;;;7.5;5.8;;;;;;;;;;;;;
2019/04/29 03:30:48;;;;;;;8.9;6;;;;;;;;;;;;;
2019/04/29 03:33:13;;;;;;;10.7;6.9;;;;;;;;;;;;;
2019/04/29 03:35:39;;;;;;;7.5;6;;;;;;;;;;;;;
2019/04/29 03:38:10;;;;;;;7.6;6.3;;;;;;;;;;;;;
2019/04/29 03:40:35;;;;;;;10.5;6.4;;;;;;;;;;;;;
2019/04/29 03:43:00;;;;;;;7.7;5.7;;;;;;;;;;;;;
2019/04/29 03:45:25;;;;;;;7.7;6.1;;;;;;;;;;;;;
2019/04/29 03:47:50;;;;;;;7.7;6.2;;;;;;;;;;;;;
2019/04/29 03:50:18;;;;;;;10.8;6.9;;;;;;;;;;;;;
2019/04/29 03:52:42;;;;;;;7.8;6.2;;;;;;;;;;;;;
2019/04/29 03:55:08;;;;;;;9.4;7.1;;;;;;;;;;;;;
2019/04/29 03:57:36;;;;;;;7;6.2;;;;;;;;;;;;;
2019/04/29 04:00:01;;;;;;;10.6;6.4;;;;;;;;;;;;;
2019/04/29 04:02:52;;;;;;;10.5;7;;;;;;;4.81;85.49414;962.853;;;;
2019/04/29 04:10:00;;;;;;;9.6;7.1;;;;;;;4.65;86.67969;962.8778;;;;
2019/04/29 04:12:25;;;;;;;9.4;7.7;;;;;;;4.6;86.91992;962.848;;;;
2019/04/29 04:14:53;;;;;;;11.5;7.8;;;;;;;4.53;87.21387;962.8787;;;;
2019/04/29 04:17:25;;;;;;;9.8;6.8;;;;;;;4.57;86.83496;962.9386;;;;
2019/04/29 04:19:43;;;;;;;9.6;7.8;;;;;;;4.52;86.99609;962.9467;;;;
2019/04/29 04:22:08;;;;;;;8.9;7.2;;;;;;;4.64;86.48633;962.9372;;;;
2019/04/29 04:24:38;;;;;;;8.9;7.1;;;;;;;4.67;86.70801;963.0244;;;;
2019/04/29 04:27:04;;;;;;;8.8;7;;;;;;;4.74;86.59766;963.0399;;;;
2019/04/29 04:29:29;;;;;;;11.4;7.4;;;;;;;4.8;85.85742;963.0391;;;;
2019/04/29 04:31:56;;;;;;;9;7.1;;;;;;;4.82;85.87402;963.0545;;;;
2019/04/29 04:34:20;;;;;;;9.7;7.8;;;;;;;4.82;85.92871;963.0125;;;;
2019/04/29 04:36:46;;;;;;;8.4;6.9;;;;;;;4.89;85.33984;963.1088;;;;
2019/04/29 04:39:14;;;;;;;9.4;6.9;;;;;;;4.89;85.54688;963.1041;;;;
2019/04/29 04:41:39;;;;;;;8.3;6.7;;;;;;;4.88;85.75977;963.122;;;;
2019/04/29 04:44:05;;;;;;;11.1;7.4;;;;;;;4.81;85.75684;963.1359;;;;
2019/04/29 04:46:31;;;;;;;8.9;6.5;;;;;;;4.93;85.43945;963.1859;;;;
2019/04/29 04:49:10;;;;;;;8.8;7;;;;;;;5;84.94141;963.2395;;;;
2019/04/29 04:51:36;;;;;;;10.1;7.2;;;;;;;5.03;85.07031;963.2503;;;;
2019/04/29 04:54:08;;;;;;;10.5;7.4;;;;;;;4.97;85.34473;963.2211;;;;
2019/04/29 04:56:34;;;;;;;11.2;7.4;;;;;;;5.02;85.36621;963.2837;;;;
2019/04/29 04:58:59;;;;;;;8.5;7.4;;;;;;;5.12;84.65723;963.3066;;;;
2019/04/29 05:01:31;;;;;;;10;7.5;;;;;;;5.15;84.50293;963.2957;;;;
2019/04/29 05:03:58;;;;;;;9.8;8.2;;;;;;;5.14;84.84277;963.3223;;;;
2019/04/29 05:06:21;;;;;;;8.7;6.2;;;;;;;5.38;83.56836;963.3077;;;;
2019/04/29 05:08:51;;;;;;;11.2;7.6;;;;;;;5.34;83.83301;963.2726;;;;
2019/04/29 05:11:13;;;;;;;12.1;8.4;;;;;;;5.25;84.3877;963.3045;;;;
2019/04/29 05:13:38;;;;;;;10.5;7.7;;;;;;;5.36;84.38379;963.3514;;;;
2019/04/29 05:16:03;;;;;;;11.4;7.6;;;;;;;5.37;84.83203;963.3377;;;;
2019/04/29 05:18:29;;;;;;;8.5;6.9;;;;;;;5.47;83.98535;963.41;;;;
2019/04/29 05:20:54;;;;;;;9.1;7.1;;;;;;;5.43;84.0918;963.4344;;;;
2019/04/29 05:23:19;;;;;;;9.9;7.6;;;;;;;5.5;84.0127;963.4504;;;;
2019/04/29 05:25:45;;;;;;;9.4;7.3;;;;;;;5.55;83.49902;963.5183;;;;
2019/04/29 05:28:18;;;;;;;9.9;7.5;;;;;;;5.54;83.59961;963.5737;;;;
2019/04/29 05:30:43;;;;;;;8.9;7.3;;;;;;;5.61;83.37207;963.5053;;;;
2019/04/29 05:33:08;;;;;;;9.3;6.7;;;;;;;5.66;83.47461;963.5097;;;;
2019/04/29 05:38:29;;;;;;;8.9;6.9;;;;;;;5.73;83.14551;963.4783;;;;
2019/04/29 05:40:53;;;;;;;9.2;7.4;;;;;;;5.88;82.66211;963.5087;;;;
2019/04/29 05:43:22;;;;;;;9;7.2;;;;;;;5.9;83.94531;963.5156;;;;
2019/04/29 05:48:37;;;;;;;10.6;7.9;;;;;;;6.22;81.71094;963.5795;;;;
2019/04/29 05:51:23;;;;;;;10.5;8.1;;;;;;;5.84;82.60742;963.5798;;;;
2019/04/29 05:53:30;;;;;;;10.7;7.8;;;;;;;6.21;80.20117;963.6136;;;;
2019/04/29 05:55:59;;;;;;;12.5;8.1;;;;;;;6.02;80.8623;963.6205;;;;
2019/04/29 05:58:31;;;;;;;9.3;6.8;;;;;;;6.25;80.74609;963.6399;;;;
2019/04/29 06:01:02;;;;;;;10.6;7.7;;;;;;;6.24;81.58984;963.6323;;;;
2019/04/29 06:03:37;;;;;;;10;7.9;;;;;;;6.22;81.02539;963.6724;;;;
2019/04/29 06:06:02;;;;;;;9;7.1;;;;;;;6.42;80.10449;963.7447;;;;
2019/04/29 06:08:50;;;;;;;10.3;7.4;;;;;;;6.4;79.53906;963.7511;;;;
2019/04/29 06:11:12;;;;;;;8.4;6.7;;;;;;;6.76;77.69531;963.7595;;;;
2019/04/29 06:13:36;;;;;;;11.7;7.8;;;;;;;6.76;77.34277;963.742;;;;
2019/04/29 06:16:21;;;;;;;11.8;8;;;;;;;6.83;77.28516;963.7619;;;;
2019/04/29 06:19:10;;;;;;;13.2;8.1;;;;;;;6.7;78.6582;963.7592;;;;
2019/04/29 06:21:28;;;;;;;8.5;6.9;;;;;;;7.02;76.95313;963.8308;;;;
2019/04/29 06:23:54;;;;;;;11.2;8;;;;;;;6.99;77.95508;963.85;;;;
2019/04/29 06:26:27;;;;;;;11.1;8.3;;;;;;;6.76;78.26758;963.8144;;;;
2019/04/29 06:28:53;;;;;;;8.9;6.9;;;;;;;7.29;75.66309;963.7905;;;;
2019/04/29 06:31:32;;;;;;;12.3;8.9;;;;;;;7.13;76.92969;963.8466;;;;
2019/04/29 06:33:54;;;;;;;12.5;7.5;;;;;;;7.17;76.91113;963.8351;;;;
2019/04/29 06:36:19;;;;;;;11.9;6.8;;;;;;;7.25;76.68555;963.8239;;;;
2019/04/29 06:38:45;;;;;;;9.3;7;;;;;;;7.65;75.31348;963.8997;;;;
2019/04/29 06:41:09;;;;;;;10;7.5;;;;;;;7.61;75.10059;963.8901;;;;
2019/04/29 06:43:35;;;;;;;12.8;8;;;;;;;7.83;74.15137;963.8756;;;;
2019/04/29 06:46:02;;;;;;;11.7;8;;;;;;;7.44;74.55566;963.9049;;;;
2019/04/29 06:48:30;;;;;;;8.5;7.5;;;;;;;7.44;76.53516;963.9183;;;;
2019/04/29 06:51:01;;;;;;;10.2;7.9;;;;;;;7.7;74.03809;963.908;;;;
2019/04/29 06:53:31;;;;;;;12.7;7.6;;;;;;;7.68;74.15039;963.9648;;;;
2019/04/29 06:55:59;;;;;;;11.7;7.2;;;;;;;7.74;74.43652;963.9258;;;;
2019/04/29 06:58:23;;;;;;;9.4;7.2;;;;;;;7.96;73.19824;963.8475;;;;
2019/04/29 07:00:49;;;;;;;11.9;8.1;;;;;;;7.98;73.69629;963.9133;;;;
2019/04/29 07:03:16;;;;;;;10;7.6;;;;;;;7.82;74.15039;963.9105;;;;
2019/04/29 07:05:44;;;;;;;12.6;7.7;;;;;;;8.05;74.0293;963.9031;;;;
2019/04/29 07:08:11;;;;;;;11;7.7;;;;;;;8.16;72.36133;963.9192;;;;
2019/04/29 07:10:39;;;;;;;11.9;7.8;;;;;;;8.21;72.69141;963.9231;;;;
2019/04/29 07:13:04;;;;;;;13.1;7.1;;;;;;;8.61;71.15039;963.93;;;;
2019/04/29 07:15:30;;;;;;;8.9;7.4;;;;;;;8.52;70.44629;963.9678;;;;
2019/04/29 07:17:55;;;;;;;10.5;7.6;;;;;;;8.41;71.93262;963.9903;;;;
2019/04/29 07:20:20;;;;;;;11;7.5;;;;;;;8.64;71.17871;963.9059;;;;
2019/04/29 07:22:46;;;;;;;10.8;8.1;;;;;;;8.42;72.1543;963.9299;;;;
2019/04/29 07:25:10;;;;;;;10.2;7.8;;;;;;;8.04;73.47754;963.997;;;;
2019/04/29 07:27:42;;;;;;;9.2;6.6;;;;;;;8.84;71.25879;963.9044;;;;
2019/04/29 07:30:15;;;;;;;9.9;8.1;;;;;;;8.42;73.33496;963.9131;;;;
2019/04/29 07:32:39;;;;;;;10.9;7.4;;;;;;;8.55;72.30078;964.0162;;;;
2019/04/29 07:35:08;;;;;;;10.4;7.6;;;;;;;8.66;72.83594;963.9252;;;;
2019/04/29 07:37:33;;;;;;;12.5;8.1;;;;;;;8.79;72.66309;963.9387;;;;
2019/04/29 07:40:17;;;;;;;11.6;7.8;;;;;;;9.15;70.07813;963.94;;;;
2019/04/29 07:42:49;;;;;;;11.9;7.7;;;;;;;9.24;69.12695;963.9227;;;;
2019/04/29 07:45:35;;;;;;;12.9;8.1;;;;;;;9.14;71.57031;963.9838;;;;
2019/04/29 07:48:00;;;;;;;11;8;;;;;;;9.31;71.46191;963.9124;;;;
2019/04/29 07:50:31;;;;;;;11.3;6.9;;;;;;;9.63;68.58984;963.8613;;;;
2019/04/29 07:53:08;;;;;;;13.6;7.3;;;;;;;9.77;67.81738;963.9161;;;;
2019/04/29 07:55:57;;;;;;;11.1;8;;;;;;;9.61;67.03223;963.8797;;;;
2019/04/29 07:58:48;;;;;;;11.3;7.6;;;;;;;10.01;65.46973;963.8328;;;;
2019/04/29 08:01:35;;;;;;;13.8;8.4;;;;;;;9.83;67.125;963.8633;;;;
2019/04/29 08:04:03;;;;;;;14.1;7.6;;;;;;;10.45;64.78613;963.8764;;;;
2019/04/29 08:06:56;;;;;;;10.8;7.4;;;;;;;10.34;65.37012;963.8483;;;;
2019/04/29 08:09:28;;;;;;;13.9;7.8;;;;;;;10.53;64.07129;963.8422;;;;
2019/04/29 08:11:48;;;;;;;13.5;8.2;;;;;;;10.4;65.27539;963.8934;;;;
2019/04/29 08:14:13;;;;;;;12;8.2;;;;;;;10.31;66.62207;963.9327;;;;
2019/04/29 08:16:41;;;;;;;12.2;8.1;;;;;;;10.47;64.55957;963.8444;;;;
2019/04/29 08:19:08;;;;;;;13.2;8.2;;;;;;;10.32;65.06641;963.889;;;;
2019/04/29 08:21:36;;;;;;;11.4;7.5;;;;;;;10.56;64.49219;963.8561;;;;
2019/04/29 08:24:09;;;;;;;14.3;8.4;;;;;;;11.14;63.52637;963.8885;;;;
2019/04/29 08:26:42;;;;;;;15.4;10;;;;;;;10.63;65.35645;963.7991;;;;
2019/04/29 08:29:10;;;;;;;12.9;7.8;;;;;;;11;63.17188;963.7575;;;;
2019/04/29 08:31:39;;;;;;;12.1;7.5;;;;;;;11.14;63.13477;963.7941;;;;
2019/04/29 08:34:22;;;;;;;11.2;7.7;;;;;;;11;63.04395;963.7831;;;;
2019/04/29 08:36:54;;;;;;;11.7;8.2;;;;;;;10.86;63.12793;963.8354;;;;
2019/04/29 08:39:20;;;;;;;12.4;7.7;;;;;;;10.81;63.15527;963.7849;;;;
2019/04/29 08:41:47;;;;;;;11.8;7.7;;;;;;;11.13;62.60156;963.8638;;;;
2019/04/29 08:44:22;;;;;;;12.4;8.4;;;;;;;11.26;61.5791;963.8674;;;;
2019/04/29 08:46:46;;;;;;;16.5;9.3;;;;;;;10.72;64.49219;963.858;;;;
2019/04/29 08:49:13;;;;;;;13.8;8.3;;;;;;;11.53;59.50098;963.7631;;;;
2019/04/29 08:51:42;;;;;;;13.7;8.3;;;;;;;11.41;60.96484;963.7964;;;;
2019/04/29 08:54:08;;;;;;;13.8;8.9;;;;;;;11.57;63.3252;963.8186;;;;
2019/04/29 08:56:33;;;;;;;12.7;8;;;;;;;12.36;58.7002;963.8057;;;;
2019/04/29 08:59:03;;;;;;;15.5;8.6;;;;;;;11.99;58.41895;963.8353;;;;
2019/04/29 09:01:28;;;;;;;12.4;8.9;;;;;;;11.84;58.62988;963.7744;;;;
2019/04/29 09:03:56;;;;;;;14.8;8.4;;;;;;;12.1;58.72266;963.8066;;;;
2019/04/29 09:06:25;;;;;;;12.7;8.3;;;;;;;11.74;57.92285;963.8397;;;;
2019/04/29 09:09:02;;;;;;;13.1;8.6;;;;;;;11.15;59.73828;963.7972;;;;
2019/04/29 09:11:27;;;;;;;12.4;8.4;;;;;;;11.35;58.94531;963.7003;;;;
2019/04/29 09:14:14;;;;;;;14.3;9.2;;;;;;;10.96;63.17676;963.7573;;;;
2019/04/29 09:16:38;;;;;;;15.6;8.8;;;;;;;10.58;62.38281;963.6969;;;;
2019/04/29 09:19:09;;;;;;;13.6;8.4;;;;;;;10.94;60.64551;963.6862;;;;
2019/04/29 09:21:32;;;;;;;14.1;8;;;;;;;11.35;58.61133;963.5762;;;;
2019/04/29 09:24:01;;;;;;;14.5;8.6;;;;;;;11.41;58.27148;963.6347;;;;
2019/04/29 09:26:37;;;;;;;13.7;7.6;;;;;;;11.36;59.17871;963.6355;;;;
2019/04/29 09:28:57;;;;;;;12.9;7.9;;;;;;;11.92;57.86523;963.6767;;;;
2019/04/29 09:31:29;;;;;;;11.7;7;;;;;;;11.53;57.79004;963.5581;;;;
2019/04/29 09:34:20;;;;;;;10.9;6.9;;;;;;;11.37;57.30566;963.5705;;;;
2019/04/29 09:37:06;;;;;;;12.5;5.5;;;;;;;11.52;54.41309;963.5678;;;;
2019/04/29 09:39:31;;;;;;;11.4;6.4;;;;;;;11.66;55.89844;963.6512;;;;
2019/04/29 09:42:06;;;;;;;11.3;6.2;;;;;;;11.35;55.55762;963.5938;;;;
2019/04/29 09:46:56;;;;;;;12.6;5.7;;;;;;;11.91;56.03516;963.579;;;;
2019/04/29 09:49:35;;;;;;;11.5;5.3;;;;;;;11.89;54.72461;963.5251;;;;
2019/04/29 09:52:04;;;;;;;10.8;5.6;;;;;;;11.63;54.18164;963.5774;;;;
2019/04/29 09:54:27;;;;;;;9.7;5.6;;;;;;;12.14;53.10059;963.4907;;;;
2019/04/29 09:56:52;;;;;;;9.8;5.5;;;;;;;12.71;51.53516;963.4808;;;;
2019/04/29 09:59:29;;;;;;;9.3;4.6;;;;;;;12.41;50.59375;963.5353;;;;
2019/04/29 10:01:55;;;;;;;8.4;4.2;;;;;;;12.03;49.87793;963.4771;;;;
2019/04/29 10:04:25;;;;;;;8.2;3.8;;;;;;;12.72;49.15918;963.4454;;;;
2019/04/29 10:06:44;;;;;;;10.4;4.4;;;;;;;12.58;51.91211;963.4997;;;;
2019/04/29 10:09:09;;;;;;;8.7;4.6;;;;;;;12.45;49.58008;963.5087;;;;
2019/04/29 10:11:47;;;;;;;9.1;4.5;;;;;;;12.2;48.98438;963.4752;;;;
2019/04/29 10:14:13;;;;;;;8.8;4.2;;;;;;;12.19;50.37305;963.4593;;;;
2019/04/29 10:16:46;;;;;;;10.3;4.5;;;;;;;12.15;51.36426;963.4169;;;;
2019/04/29 10:21:39;;;;;;;11.9;5.1;;;;;;;11.45;56.51855;963.5491;;;;
2019/04/29 10:24:07;;;;;;;9.1;5.4;;;;;;;11.43;54.35449;963.4788;;;;
2019/04/29 10:26:35;;;;;;;11.1;5.5;;;;;;;12.15;53.99316;963.4128;;;;
2019/04/29 10:29:05;;;;;;;9.7;4.7;;;;;;;11.75;56.0498;963.3725;;;;
2019/04/29 10:31:35;;;;;;;10.6;5;;;;;;;12.49;50.91797;963.3209;;;;
2019/04/29 10:34:03;;;;;;;10.2;5.4;;;;;;;12.1;53.36133;963.307;;;;
2019/04/29 10:36:28;;;;;;;11.1;5.5;;;;;;;11.65;54.43848;963.3285;;;;
2019/04/29 10:38:56;;;;;;;12.5;5.8;;;;;;;11.32;60.58301;963.3317;;;;
2019/04/29 10:41:26;;;;;;;11.3;6.7;;;;;;;10.4;65.06641;963.3992;;;;
2019/04/29 10:44:00;;;;;;;11.5;6.4;;;;;;;9.81;66.47852;963.3917;;;;
2019/04/29 10:48:48;;;;;;;12.1;6.6;;;;;;;9.6;66.25977;963.3994;;;;
2019/04/29 10:51:08;;;;;;;9.4;5.7;;;;;;;9.41;69.02734;963.3666;;;;
2019/04/29 10:53:32;;;;;;;11.7;7.2;;;;;;;9.52;70.10352;963.3478;;;;
2019/04/29 10:56:10;;;;;;;15.8;8;;;;;;;9.68;68.93164;963.46;;;;
2019/04/29 10:58:35;;;;;;;12;6.9;;;;;;;9.77;66.53906;963.392;;;;
2019/04/29 11:01:25;;;;;;;12.4;6.9;;;;;;;9.75;67.14648;963.5726;;;;
2019/04/29 11:04:07;;;;;;;12;8;;;;;;;9.02;74.20703;963.6161;;;;
2019/04/29 11:06:32;;;;;;;14;9.3;;;;;;;8.75;76.97656;963.5427;;;;
2019/04/29 11:09:16;;;;;;;12.5;8.7;;;;;;;8.73;78.01855;963.4381;;;;
2019/04/29 11:11:26;;;;;;;15.6;9.6;;;;;;;8.81;77.13574;963.4141;;;;
2019/04/29 11:13:52;;;;;;;19.4;10;;;;;;;9.18;77.16992;963.4178;;;;
2019/04/29 11:16:29;;;;;;;14.1;9.2;;;;;;;9.36;77.23438;963.4308;;;;
2019/04/29 11:18:54;;;;;;;15;8.3;;;;;;;9.9;73.96777;963.366;;;;
2019/04/29 11:21:20;;;;;;;15.9;8.8;;;;;;;9.95;72.68555;963.3232;;;;
2019/04/29 11:23:53;;;;;;;13.9;8.7;;;;;;;9.94;72.27051;963.3152;;;;
2019/04/29 11:28:41;;;;;;;12.4;7.7;;;;;;;10.47;72.6123;963.2637;;;;
2019/04/29 11:31:06;;;;;;;16.1;9.1;;;;;;;10.8;70.80762;963.2484;;;;
2019/04/29 11:36:37;;;;;;;13.8;8.2;;;;;;;10.59;67.30078;963.1501;;;;
2019/04/29 11:39:05;;;;;;;12;7.8;;;;;;;10.9;66.93164;963.1362;;;;
2019/04/29 11:41:33;;;;;;;11.3;7.7;;;;;;;10.39;68.7334;963.2425;;;;
2019/04/29 11:44:12;;;;;;;11.6;7.5;;;;;;;9.86;70.97852;963.2506;;;;
2019/04/29 11:46:52;;;;;;;11.4;7.9;;;;;;;9.73;72.95996;963.2719;;;;
2019/04/29 11:49:34;;;;;;;9.9;7.8;;;;;;;9.93;72.16406;963.1674;;;;
2019/04/29 11:52:07;;;;;;;12.3;6.8;;;;;;;9.7;70.31836;963.1042;;;;
2019/04/29 11:54:41;;;;;;;10.7;7.3;;;;;;;10.05;72.9668;963.1049;;;;
2019/04/29 11:57:10;;;;;;;9.1;6.4;;;;;;;10.23;68.16699;963.0488;;;;
2019/04/29 12:04:45;;;;;;;8.8;4.4;;;;;;;10.41;60.70801;963.0956;;;;
2019/04/29 12:07:16;;;;;;;6.4;4.5;;;;;;;10.65;62.50879;963.1096;;;;
2019/04/29 12:09:42;;;;;;;8.3;4.6;;;;;;;11.38;61.30664;962.9846;;;;
2019/04/29 12:12:16;;;;;;;7.6;5.2;;;;;;;11.27;61.91602;962.9738;;;;
2019/04/29 12:17:37;;;;;;;10.1;5.3;;;;;;;11.53;60.36914;962.9517;;;;
2019/04/29 12:20:01;;;;;;;11.5;6.2;;;;;;;11.45;62.2998;962.9813;;;;
2019/04/29 12:22:24;;;;;;;10.1;6;;;;;;;11.7;62.78711;962.9639;;;;
2019/04/29 12:24:54;;;;;;;11.3;6.6;;;;;;;11.31;66.29199;962.9147;;;;
2019/04/29 12:29:59;;;;;;;10.5;6.9;;;;;;;10.95;69.64258;962.9643;;;;
2019/04/29 12:34:55;;;;;;;9.5;5.5;;;;;;;11.29;63.22559;962.8907;;;;
2019/04/29 12:40:26;;;;;;;8.5;4.8;;;;;;;11.39;64.25781;962.8211;;;;
2019/04/29 12:45:02;;;;;;;9.1;5.1;;;;;;;11.59;59.45215;962.8211;;;;
2019/04/29 12:47:32;;;;;;;9.5;5.3;;;;;;;11.13;61.01855;962.7838;;;;
2019/04/29 12:50:11;;;;;;;10.3;5.4;;;;;;;10.99;60.42188;962.7675;;;;
2019/04/29 12:52:36;;;;;;;10.2;5.6;;;;;;;11;63.79492;962.7498;;;;
2019/04/29 12:55:08;;;;;;;9.1;5.3;;;;;;;10.92;60.27246;962.7752;;;;
2019/04/29 12:57:36;;;;;;;9.9;5.5;;;;;;;10.35;63.04199;962.8497;;;;
2019/04/29 13:00:15;;;;;;;8.6;5.3;;;;;;;10.2;64.02246;962.7664;;;;
2019/04/29 13:03:12;;;;;;;8.5;5.3;;;;;;;10.3;63.64453;962.7567;;;;
2019/04/29 13:07:35;;;;;;;9.2;5.5;;;;;;;10.27;67.98828;962.7509;;;;
2019/04/29 13:09:57;;;;;;;11.2;6;;;;;;;10.13;64.83203;962.649;;;;
2019/04/29 13:12:23;;;;;;;11;6.2;;;;;;;10.02;66.71582;962.6902;;;;
2019/04/29 13:15:01;;;;;;;9.4;5.4;;;;;;;10.13;66.79004;962.6411;;;;
2019/04/29 13:17:23;;;;;;;11.4;6.5;;;;;;;9.95;66.17578;962.6536;;;;
2019/04/29 13:19:47;;;;;;;8.9;6;;;;;;;10.16;65.62012;962.5566;;;;
2019/04/29 13:22:08;;;;;;;8.4;6;;;;;;;10.3;64.47559;962.5944;;;;
2019/04/29 13:24:33;;;;;;;10.5;5.6;;;;;;;10.85;63.57617;962.5648;;;;
2019/04/29 13:27:12;;;;;;;9.6;6;;;;;;;10.81;65.98438;962.611;;;;
2019/04/29 13:29:49;;;;;;;9.3;5.8;;;;;;;10.94;65.79688;962.5594;;;;
2019/04/29 13:32:13;;;;;;;9.8;5.1;;;;;;;11.42;61.04785;962.4973;;;;
2019/04/29 13:34:42;;;;;;;6.6;4.7;;;;;;;11.41;61.58984;962.5455;;;;
2019/04/29 13:37:18;;;;;;;8.9;5;;;;;;;11.5;61.82227;962.467;;;;
2019/04/29 13:39:37;;;;;;;8;5.1;;;;;;;11.34;62.58496;962.5608;;;;
2019/04/29 13:42:05;;;;;;;6.1;4.5;;;;;;;11.27;59.54688;962.5302;;;;
2019/04/29 13:44:32;;;;;;;8.4;5.2;;;;;;;11.07;62.31543;962.4612;;;;
2019/04/29 13:47:19;;;;;;;7;5.1;;;;;;;10.64;61.88281;962.488;;;;
2019/04/29 13:49:27;;;;;;;8.3;5.9;;;;;;;10.83;61.7959;962.4725;;;;
2019/04/29 13:51:52;;;;;;;8.9;5.9;;;;;;;10.66;65.8916;962.4775;;;;
2019/04/29 13:54:15;;;;;;;10.1;5.9;;;;;;;10.75;64.46289;962.3865;;;;
2019/04/29 13:57:03;;;;;;;8.3;5.7;;;;;;;10.91;63.45703;962.4864;;;;
2019/04/29 13:59:52;;;;;;;9.1;5.7;;;;;;;11.44;61.74512;962.4606;;;;
2019/04/29 14:02:27;;;;;;;10.1;7;;;;;;;10.94;65.99219;962.4833;;;;
2019/04/29 14:04:55;;;;;;;11.7;7.5;;;;;;;10.62;69.13965;962.383;;;;
2019/04/29 14:07:18;;;;;;;10;6.7;;;;;;;10.74;63.47949;962.4258;;;;
2019/04/29 14:09:56;;;;;;;11.2;7;;;;;;;11.03;63.96094;962.3755;;;;
2019/04/29 14:12:27;;;;;;;10.9;7.4;;;;;;;10.61;66.71484;962.3758;;;;
2019/04/29 14:14:51;;;;;;;11.4;6.8;;;;;;;10.56;66.84473;962.3981;;;;
2019/04/29 14:17:18;;;;;;;14;7.7;;;;;;;10.23;71.08398;962.4348;;;;
2019/04/29 14:19:41;;;;;;;10.5;8;;;;;;;10.35;71.05859;962.3372;;;;
2019/04/29 14:22:06;;;;;;;11.3;7.8;;;;;;;10.1;72.41211;962.3024;;;;
2019/04/29 14:24:54;;;;;;;9.4;7;;;;;;;10.34;67.68848;962.322;;;;
2019/04/29 14:27:44;;;;;;;9.1;6.7;;;;;;;10.16;67.97168;962.2753;;;;
2019/04/29 14:30:10;;;;;;;10.4;6.7;;;;;;;9.91;65.84668;962.2147;;;;
2019/04/29 14:32:40;;;;;;;12.4;7;;;;;;;10.01;67.77441;962.2092;;;;
2019/04/29 14:35:20;;;;;;;10.5;6.9;;;;;;;10.1;64.57324;962.1752;;;;
2019/04/29 14:37:38;;;;;;;9.7;6.3;;;;;;;10.02;66.26758;962.1443;;;;
2019/04/29 14:40:07;;;;;;;11.8;7.2;;;;;;;10.08;69.37695;962.2189;;;;
2019/04/29 14:49:56;;;;;;;8.4;6.2;;;;;;;10.09;64.79004;962.1245;;;;
2019/04/29 14:52:19;;;;;;;8.7;6.3;;;;;;;9.88;66.29102;962.1373;;;;
2019/04/29 14:54:47;;;;;;;9.9;5.9;;;;;;;9.76;67.4707;962.2171;;;;
2019/04/29 14:57:12;;;;;;;10;6.1;;;;;;;9.94;67.31445;962.2166;;;;
2019/04/29 14:59:37;;;;;;;8;6.2;;;;;;;9.8;67.52344;962.1742;;;;
2019/04/29 15:04:38;;;;;;;8.8;6.2;;;;;;;9.89;66.0166;962.1868;;;;
2019/04/29 15:07:03;;;;;;;8.1;5.7;;;;;;;9.61;68.81738;962.1379;;;;
2019/04/29 15:09:28;;;;;;;9.8;6.9;;;;;;;9.49;72.49316;962.2264;;;;
2019/04/29 15:12:01;;;;;;;8.2;5.9;;;;;;;9.48;71.43164;962.1378;;;;
2019/04/29 15:16:47;;;;;;;8.3;6.3;;;;;;;9.59;70.40332;962.255;;;;
2019/04/29 15:21:39;;;;;;;10.3;7.7;;;;;;;9.78;71.69043;962.2658;;;;
2019/04/29 15:24:01;;;;;;;10.5;8;;;;;;;9.73;68.96387;962.3006;;;;
2019/04/29 15:26:26;;;;;;;11.1;8.4;;;;;;;9.41;72.74414;962.2553;;;;
2019/04/29 15:28:52;;;;;;;12.3;8.6;;;;;;;9.71;70.82617;962.2088;;;;
2019/04/29 15:31:28;;;;;;;12.5;9.6;;;;;;;9.3;72.1377;962.3727;;;;
2019/04/29 15:33:59;;;;;;;13;10;;;;;;;9.19;74.40918;962.2894;;;;
2019/04/29 15:36:26;;;;;;;12.8;9.8;;;;;;;9.25;74.40723;962.3304;;;;
2019/04/29 15:38:52;;;;;;;13.4;10.6;;;;;;;9.04;76.30371;962.261;;;;
2019/04/29 15:41:17;;;;;;;12.8;9.2;;;;;;;9.04;74.83105;962.2825;;;;
2019/04/29 15:43:45;;;;;;;13.6;10.1;;;;;;;9.18;75.22461;962.3156;;;;
2019/04/29 15:46:11;;;;;;;11.9;9.9;;;;;;;9.08;75.28809;962.2997;;;;
2019/04/29 15:48:37;;;;;;;13.2;10.9;;;;;;;8.74;78.84766;962.3696;;;;
2019/04/29 15:51:02;;;;;;;10.8;9.1;;;;;;;8.89;77.44922;962.4285;;;;
2019/04/29 15:53:27;;;;;;;13.6;10.3;;;;;;;8.55;79.69922;962.3405;;;;
2019/04/29 15:56:10;;;;;;;12.9;11;;;;;;;8.48;80.25879;962.42;;;;
2019/04/29 15:58:35;;;;;;;13.5;10.3;;;;;;;8.54;81.18945;962.4733;;;;
2019/04/29 16:01:00;;;;;;;14.6;10.5;;;;;;;8.38;81.88281;962.4412;;;;
2019/04/29 16:03:27;;;;;;;13.5;9.9;;;;;;;8.21;81.35645;962.4141;;;;
2019/04/29 16:06:02;;;;;;;12.6;9.3;;;;;;;8.17;81.8418;962.4606;;;;
2019/04/29 16:13:10;;;;;;;13.1;10.4;;;;;;;8.11;84.71094;962.4447;;;;
2019/04/29 16:15:34;;;;;;;12.9;10.1;;;;;;;8.24;83.74902;962.3731;;;;
2019/04/29 16:18:00;;;;;;;14.4;11.1;;;;;;;8.15;83.72168;962.3601;;;;
2019/04/29 16:20:26;;;;;;;15.2;10.8;;;;;;;8.13;83.5332;962.4003;;;;
2019/04/29 16:23:13;;;;;;;15.5;10.9;;;;;;;8.17;83.49414;962.3753;;;;
2019/04/29 16:25:37;;;;;;;12.7;9.3;;;;;;;8.08;82.8916;962.3797;;;;
2019/04/29 16:28:02;;;;;;;11.8;8.9;;;;;;;8.08;81.05762;962.3622;;;;
2019/04/29 16:30:27;;;;;;;12.5;8.9;;;;;;;8.17;80.88867;962.2988;;;;
2019/04/29 16:32:52;;;;;;;11.2;8.7;;;;;;;8.21;79.89941;962.3504;;;;
2019/04/29 16:35:19;;;;;;;11.5;10.1;;;;;;;8.21;82.50391;962.3336;;;;
2019/04/29 16:38:03;;;;;;;10.7;9.4;;;;;;;8.22;80.9668;962.4348;;;;
2019/04/29 16:40:34;;;;;;;11.6;9.9;;;;;;;8.34;83.0791;962.407;;;;
